Time;durP1;ratioP1;P1;durP2;ratioP2;P2;SDS_P1;SDS_P2;PMS_P1;PMS_P2;Temp;Humidity;BMP_temperature;BMP_pressure;BME280_temperature;BME280_humidity;BME280_pressure;Samples;Min_cycle;Max_cycle;Signal;HPM_P1;HPM_P2
2022/04/18 00:00:33;;;;;;;5.63;5.22;;;;;;;;;;5044817;28;20529;-45
2022/04/18 00:03:03;;;;;;;5.10;4.70;;;;;;;;;;5041407;28;20032;-45
2022/04/18 00:05:32;;;;;;;6.65;6.15;;;;;;;;;;5039447;28;20176;-46
2022/04/18 00:07:57;;;;;;;5.65;5.25;;;;;;;;;;5039567;28;20029;-45
2022/04/18 00:10:22;;;;;;;6.57;6.07;;;;;;;;;;5043091;28;20082;-47
2022/04/18 00:12:48;;;;;;;6.20;5.70;;;;;;;;;;5041418;28;20442;-45
2022/04/18 00:15:14;;;;;;;6.32;5.93;;;;;;;;;;5039647;28;20029;-46
2022/04/18 00:17:39;;;;;;;6.00;5.57;;;;;;;;;;5039824;28;20044;-47
2022/04/18 00:20:05;;;;;;;7.13;6.60;;;;;;;;;;5039961;28;20563;-45
2022/04/18 00:22:31;;;;;;;5.55;5.15;;;;;;;;;;5037970;28;20098;-45
2022/04/18 00:24:56;;;;;;;5.50;5.10;;;;;;;;;;5041733;28;20025;-45
2022/04/18 00:27:21;;;;;;;6.05;5.57;;;;;;;;;;5045598;28;20505;-45
2022/04/18 00:29:50;;;;;;;7.25;6.75;;;;;;;;;;5045649;28;20116;-45
2022/04/18 00:32:16;;;;;;;6.45;6.03;;;;;;;;;;5037730;28;20059;-45
2022/04/18 00:34:42;;;;;;;7.93;7.40;;;;;;;;;;5042332;28;20475;-45
2022/04/18 00:37:08;;;;;;;8.70;8.10;;;;;;;;;;5040701;28;20056;-46
2022/04/18 00:39:33;;;;;;;7.07;6.57;;;;;;;;;;5039212;28;20037;-45
2022/04/18 00:41:59;;;;;;;7.15;6.55;;;;;;;;;;5041051;28;20040;-44
2022/04/18 00:44:24;;;;;;;8.23;7.63;;;;;;;;;;5043732;28;20029;-45
2022/04/18 00:46:50;;;;;;;8.80;8.20;;;;;;;;;;5048207;28;20112;-45
2022/04/18 00:49:15;;;;;;;7.70;7.05;;;;;;;;;;5064096;28;20366;-45
2022/04/18 00:51:41;;;;;;;7.28;6.78;;;;;;;;;;5048945;28;20112;-45
2022/04/18 00:54:08;;;;;;;6.80;6.30;;;;;;;;;;5039333;28;20057;-46
2022/04/18 00:56:34;;;;;;;6.95;6.45;;;;;;;;;;5047625;28;20064;-46
2022/04/18 00:59:00;;;;;;;7.45;6.95;;;;;;;;;;5048653;28;20505;-45
2022/04/18 01:01:26;;;;;;;7.95;7.40;;;;;;;;;;5048525;28;20035;-46
2022/04/18 01:03:51;;;;;;;7.35;6.82;;;;;;;;;;5045260;28;20132;-45
2022/04/18 01:06:18;;;;;;;7.55;7.05;;;;;;;;;;5043760;28;20037;-45
2022/04/18 01:08:44;;;;;;;7.00;6.50;;;;;;;;;;5044559;28;20487;-46
2022/04/18 01:11:10;;;;;;;7.30;6.80;;;;;;;;;;5044976;28;20040;-45
2022/04/18 01:13:40;;;;;;;8.23;7.63;;;;;;;;;;5042844;28;20073;-45
2022/04/18 01:16:05;;;;;;;8.05;7.35;;;;;;;;;;5044684;28;20032;-46
2022/04/18 01:18:31;;;;;;;7.55;7.05;;;;;;;;;;5044959;28;20110;-46
2022/04/18 01:20:56;;;;;;;5.97;5.57;;;;;;;;;;5043317;28;20154;-48
2022/04/18 01:23:22;;;;;;;6.95;6.45;;;;;;;;;;5043908;28;20029;-46
2022/04/18 01:31:14;;;;;;;8.27;7.47;;;;;;;;;;5044826;28;20044;-46
2022/04/18 01:33:40;;;;;;;7.65;7.13;;;;;;;;;;5042624;28;20037;-45
2022/04/18 01:36:05;;;;;;;7.90;7.40;;;;;;;;;;5043970;28;20028;-46
2022/04/18 01:38:31;;;;;;;7.88;7.38;;;;;;;;;;5042859;28;20052;-45
2022/04/18 01:40:56;;;;;;;7.63;7.13;;;;;;;;;;5042308;28;20036;-45
2022/04/18 01:43:22;;;;;;;8.15;7.55;;;;;;;;;;5042874;28;20435;-46
2022/04/18 01:45:47;;;;;;;7.95;7.45;;;;;;;;;;5043260;28;20457;-45
2022/04/18 01:48:13;;;;;;;7.85;7.35;;;;;;;;;;5043046;28;20048;-45
2022/04/18 01:50:39;;;;;;;8.05;7.50;;;;;;;;;;5042170;28;20044;-46
2022/04/18 01:53:04;;;;;;;8.75;8.15;;;;;;;;;;5041993;28;20433;-45
2022/04/18 01:55:30;;;;;;;7.90;7.38;;;;;;;;;;5042428;28;20098;-45
2022/04/18 01:57:55;;;;;;;8.38;7.78;;;;;;;;;;5042210;28;20551;-45
2022/04/18 02:00:21;;;;;;;7.85;7.25;;;;;;;;;;5041381;28;20732;-45
2022/04/18 02:02:46;;;;;;;9.02;8.43;;;;;;;;;;5040640;28;20040;-46
2022/04/18 02:05:12;;;;;;;9.70;9.10;;;;;;;;;;5039614;28;20118;-45
2022/04/18 02:07:38;;;;;;;10.57;9.82;;;;;;;;;;5040078;28;20078;-45
2022/04/18 02:10:04;;;;;;;9.90;9.20;;;;;;;;;;5042381;28;20120;-46
2022/04/18 02:12:32;;;;;;;11.07;10.35;;;;;;;;;;5043735;28;20056;-46
2022/04/18 02:14:57;;;;;;;10.82;10.13;;;;;;;;;;5042203;28;20032;-46
2022/04/18 02:17:22;;;;;;;10.57;9.88;;;;;;;;;;5042632;28;20730;-45
2022/04/18 02:19:48;;;;;;;10.25;9.55;;;;;;;;;;5044294;28;20854;-47
2022/04/18 02:22:13;;;;;;;10.05;9.35;;;;;;;;;;5043043;28;20053;-46
2022/04/18 02:24:39;;;;;;;9.98;9.38;;;;;;;;;;5042162;28;20029;-48
2022/04/18 02:27:06;;;;;;;10.55;9.85;;;;;;;;;;5041848;28;20035;-45
2022/04/18 02:29:32;;;;;;;10.32;9.63;;;;;;;;;;5042303;28;20076;-46
2022/04/18 02:34:42;;;;;;;9.68;8.98;;;;;;;;;;5042817;28;20033;-45
2022/04/18 02:37:07;;;;;;;11.25;10.55;;;;;;;;;;5040782;28;20021;-47
2022/04/18 02:39:33;;;;;;;9.38;8.65;;;;;;;;;;5042465;28;20051;-45
2022/04/18 02:41:58;;;;;;;11.98;11.18;;;;;;;;;;5043270;28;20602;-45
2022/04/18 02:44:24;;;;;;;10.70;10.00;;;;;;;;;;5043257;28;20339;-51
2022/04/18 02:46:49;;;;;;;11.65;10.75;;;;;;;;;;5046719;28;20036;-51
2022/04/18 02:49:15;;;;;;;10.65;9.95;;;;;;;;;;5045234;28;20340;-52
2022/04/18 02:51:41;;;;;;;10.38;9.68;;;;;;;;;;5047145;28;20032;-50
2022/04/18 02:54:06;;;;;;;10.40;9.70;;;;;;;;;;5046526;28;20123;-50
2022/04/18 02:56:32;;;;;;;10.20;9.60;;;;;;;;;;5046960;28;20107;-51
2022/04/18 02:58:57;;;;;;;10.68;9.98;;;;;;;;;;5045926;28;20128;-53
2022/04/18 03:01:22;;;;;;;10.45;9.75;;;;;;;;;;5046839;28;20082;-51
2022/04/18 03:03:48;;;;;;;9.52;8.93;;;;;;;;;;5046248;28;20081;-53
2022/04/18 03:06:14;;;;;;;10.18;9.57;;;;;;;;;;5045989;28;20056;-51
2022/04/18 03:08:39;;;;;;;9.98;9.35;;;;;;;;;;5046131;28;20016;-52
2022/04/18 03:11:05;;;;;;;10.98;10.27;;;;;;;;;;5045445;28;20025;-54
2022/04/18 03:13:35;;;;;;;10.85;10.15;;;;;;;;;;5045465;28;20336;-51
2022/04/18 03:16:02;;;;;;;8.98;8.38;;;;;;;;;;5046583;28;20048;-50
2022/04/18 03:18:27;;;;;;;9.82;9.23;;;;;;;;;;5045943;28;20039;-50
2022/04/18 03:20:53;;;;;;;10.25;9.55;;;;;;;;;;5046505;28;20033;-50
2022/04/18 03:23:18;;;;;;;10.40;9.52;;;;;;;;;;5046733;28;20024;-52
2022/04/18 03:25:44;;;;;;;7.85;7.32;;;;;;;;;;5046809;28;20025;-50
2022/04/18 03:28:09;;;;;;;7.78;7.18;;;;;;;;;;5045786;28;20079;-46
2022/04/18 03:30:35;;;;;;;7.05;6.55;;;;;;;;;;5046021;28;20028;-45
2022/04/18 03:33:01;;;;;;;7.75;7.25;;;;;;;;;;5045137;28;20072;-46
2022/04/18 03:35:27;;;;;;;6.57;6.10;;;;;;;;;;5045004;28;20540;-47
2022/04/18 03:40:37;;;;;;;8.60;8.00;;;;;;;;;;5040488;28;20029;-45
2022/04/18 03:43:03;;;;;;;8.05;7.45;;;;;;;;;;5041041;28;20033;-46
2022/04/18 03:45:28;;;;;;;8.98;8.32;;;;;;;;;;5040098;28;20075;-45
2022/04/18 03:47:54;;;;;;;8.32;7.78;;;;;;;;;;5040780;28;20033;-45
2022/04/18 03:50:19;;;;;;;8.82;8.20;;;;;;;;;;5040317;28;20056;-44
2022/04/18 03:52:45;;;;;;;7.15;6.65;;;;;;;;;;5040352;28;20522;-46
2022/04/18 03:55:11;;;;;;;7.50;7.00;;;;;;;;;;5040503;28;20174;-45
2022/04/18 03:57:37;;;;;;;6.47;6.00;;;;;;;;;;5041213;28;20033;-45
2022/04/18 04:00:05;;;;;;;8.93;8.32;;;;;;;;;;5042486;28;20119;-45
2022/04/18 04:02:30;;;;;;;7.97;7.47;;;;;;;;;;5041068;28;20098;-44
2022/04/18 04:04:56;;;;;;;6.82;6.32;;;;;;;;;;5042140;28;20033;-45
2022/04/18 04:07:21;;;;;;;7.05;6.55;;;;;;;;;;5042240;28;20120;-45
2022/04/18 04:09:47;;;;;;;6.88;6.38;;;;;;;;;;5040051;28;20060;-46
2022/04/18 04:12:12;;;;;;;7.25;6.65;;;;;;;;;;5041225;28;20876;-44
2022/04/18 04:14:38;;;;;;;5.85;5.45;;;;;;;;;;5041283;28;20036;-46
2022/04/18 04:17:03;;;;;;;6.75;6.25;;;;;;;;;;5040042;28;20102;-44
2022/04/18 04:19:29;;;;;;;5.78;5.38;;;;;;;;;;5038481;28;20079;-48
2022/04/18 04:21:54;;;;;;;5.50;5.10;;;;;;;;;;5044444;28;20029;-45
2022/04/18 04:24:20;;;;;;;5.40;5.00;;;;;;;;;;5044172;28;20667;-45
2022/04/18 04:26:45;;;;;;;5.70;5.30;;;;;;;;;;5043474;28;20082;-44
2022/04/18 04:29:11;;;;;;;5.15;4.75;;;;;;;;;;5044457;28;20094;-44
2022/04/18 04:31:36;;;;;;;6.50;6.00;;;;;;;;;;5044696;28;21760;-45
2022/04/18 04:34:02;;;;;;;6.30;5.80;;;;;;;;;;5044053;28;20154;-45
2022/04/18 04:36:27;;;;;;;5.53;5.13;;;;;;;;;;5042806;28;20044;-45
2022/04/18 04:38:52;;;;;;;6.00;5.47;;;;;;;;;;5046080;28;20033;-44
2022/04/18 04:41:18;;;;;;;6.47;6.05;;;;;;;;;;5043793;28;20119;-44
2022/04/18 04:43:43;;;;;;;6.78;6.28;;;;;;;;;;5044086;28;20067;-45
2022/04/18 04:46:09;;;;;;;6.13;5.72;;;;;;;;;;5044747;28;20075;-45
2022/04/18 04:48:34;;;;;;;5.97;5.47;;;;;;;;;;5042980;28;20040;-45
2022/04/18 04:51:00;;;;;;;5.93;5.53;;;;;;;;;;5044299;28;20037;-43
2022/04/18 04:53:25;;;;;;;7.43;6.90;;;;;;;;;;5042355;28;20029;-44
2022/04/18 04:55:51;;;;;;;6.78;6.28;;;;;;;;;;5043020;28;20532;-45
2022/04/18 04:58:16;;;;;;;7.32;6.82;;;;;;;;;;5044386;28;20060;-45
2022/04/18 05:00:45;;;;;;;8.13;7.63;;;;;;;;;;5042005;28;20045;-44
2022/04/18 05:03:10;;;;;;;8.43;7.82;;;;;;;;;;5045274;28;20029;-44
2022/04/18 05:05:36;;;;;;;8.32;7.72;;;;;;;;;;5044770;28;20033;-44
2022/04/18 05:08:02;;;;;;;5.93;5.53;;;;;;;;;;5042418;28;20072;-44
2022/04/18 05:10:28;;;;;;;7.15;6.65;;;;;;;;;;5044140;28;20086;-45
2022/04/18 05:12:53;;;;;;;6.18;5.72;;;;;;;;;;5043757;28;20045;-45
2022/04/18 05:15:19;;;;;;;5.95;5.55;;;;;;;;;;5044992;28;20086;-45
2022/04/18 05:17:44;;;;;;;6.90;6.40;;;;;;;;;;5042940;28;20035;-44
2022/04/18 05:20:11;;;;;;;6.82;6.32;;;;;;;;;;5044403;28;20037;-45
2022/04/18 05:22:36;;;;;;;9.30;8.70;;;;;;;;;;5041508;28;20034;-44
2022/04/18 05:25:02;;;;;;;9.65;9.05;;;;;;;;;;5042694;28;20537;-44
2022/04/18 05:27:28;;;;;;;11.90;10.02;;;;;;;;;;5042635;28;20037;-43
2022/04/18 05:29:53;;;;;;;9.88;9.27;;;;;;;;;;5041832;28;20036;-46
2022/04/18 05:32:19;;;;;;;10.48;9.57;;;;;;;;;;5040676;28;20045;-45
2022/04/18 05:34:44;;;;;;;9.68;9.07;;;;;;;;;;5042339;28;20637;-46
2022/04/18 05:37:10;;;;;;;12.70;11.90;;;;;;;;;;5044328;28;20377;-46
2022/04/18 05:39:35;;;;;;;11.60;10.90;;;;;;;;;;5044058;28;20120;-45
2022/04/18 05:42:01;;;;;;;11.38;10.68;;;;;;;;;;5043813;28;20466;-45
2022/04/18 05:44:27;;;;;;;11.43;10.73;;;;;;;;;;5043798;28;20438;-46
2022/04/18 05:46:53;;;;;;;10.20;9.60;;;;;;;;;;5042599;28;20734;-46
2022/04/18 05:49:18;;;;;;;9.23;8.63;;;;;;;;;;5041644;28;20052;-47
2022/04/18 05:51:44;;;;;;;10.02;9.35;;;;;;;;;;5043454;28;20115;-47
2022/04/18 05:54:09;;;;;;;9.85;9.25;;;;;;;;;;5043538;28;20056;-46
2022/04/18 05:56:35;;;;;;;9.70;9.10;;;;;;;;;;5041917;28;20032;-46
2022/04/18 05:59:00;;;;;;;10.68;9.80;;;;;;;;;;5043819;28;20064;-45
2022/04/18 06:01:28;;;;;;;9.32;8.73;;;;;;;;;;5041883;28;20488;-45
2022/04/18 06:03:54;;;;;;;10.85;10.18;;;;;;;;;;5043761;28;20639;-46
2022/04/18 06:06:20;;;;;;;10.05;9.45;;;;;;;;;;5042297;28;20037;-47
2022/04/18 06:08:45;;;;;;;8.68;8.10;;;;;;;;;;5041705;28;20037;-45
2022/04/18 06:11:10;;;;;;;6.70;6.22;;;;;;;;;;5042968;28;20264;-46
2022/04/18 06:13:36;;;;;;;7.45;6.95;;;;;;;;;;5041109;28;20457;-46
2022/04/18 06:16:01;;;;;;;17.92;9.10;;;;;;;;;;5043488;28;20462;-46
2022/04/18 06:18:27;;;;;;;6.75;6.28;;;;;;;;;;5042660;28;20048;-45
2022/04/18 06:20:53;;;;;;;5.88;5.38;;;;;;;;;;5047377;28;20036;-46
2022/04/18 06:23:18;;;;;;;4.93;4.53;;;;;;;;;;5040931;28;20032;-46
2022/04/18 06:25:44;;;;;;;5.72;4.95;;;;;;;;;;5040675;28;20075;-46
2022/04/18 06:28:10;;;;;;;4.85;4.45;;;;;;;;;;5040318;28;20501;-45
2022/04/18 06:30:36;;;;;;;5.13;4.72;;;;;;;;;;5041407;28;20070;-46
2022/04/18 06:33:01;;;;;;;5.57;5.18;;;;;;;;;;5039328;28;20127;-46
2022/04/18 06:35:27;;;;;;;5.75;5.25;;;;;;;;;;5040295;28;20037;-47
2022/04/18 06:37:52;;;;;;;6.05;5.65;;;;;;;;;;5043350;28;20071;-46
2022/04/18 06:40:17;;;;;;;5.82;5.38;;;;;;;;;;5041051;28;20596;-47
2022/04/18 06:42:43;;;;;;;6.78;6.28;;;;;;;;;;5039287;28;20028;-46
2022/04/18 06:45:09;;;;;;;5.85;5.45;;;;;;;;;;5040516;28;20575;-46
2022/04/18 06:47:34;;;;;;;5.13;4.72;;;;;;;;;;5039963;28;20037;-46
2022/04/18 06:50:00;;;;;;;5.45;4.95;;;;;;;;;;5039675;28;20032;-45
2022/04/18 06:52:25;;;;;;;5.30;4.90;;;;;;;;;;5041217;28;20113;-46
2022/04/18 06:54:51;;;;;;;5.50;5.10;;;;;;;;;;5039932;28;20490;-45
2022/04/18 06:57:16;;;;;;;6.15;5.75;;;;;;;;;;5042315;28;20041;-47
2022/04/18 06:59:42;;;;;;;6.57;6.07;;;;;;;;;;5038023;28;20540;-46
2022/04/18 07:02:08;;;;;;;8.57;7.68;;;;;;;;;;5055254;28;20028;-46
2022/04/18 07:04:35;;;;;;;8.70;8.10;;;;;;;;;;5042323;28;20342;-47
2022/04/18 07:07:00;;;;;;;7.15;6.65;;;;;;;;;;5043262;28;20083;-47
2022/04/18 07:09:26;;;;;;;6.88;6.38;;;;;;;;;;5045843;28;20860;-45
2022/04/18 07:11:51;;;;;;;6.93;6.43;;;;;;;;;;5046035;28;20033;-45
2022/04/18 07:14:17;;;;;;;8.57;7.78;;;;;;;;;;5045948;28;20032;-45
2022/04/18 07:16:43;;;;;;;9.90;9.30;;;;;;;;;;5041446;28;20025;-46
2022/04/18 07:19:08;;;;;;;10.55;9.85;;;;;;;;;;5039986;28;20045;-45
2022/04/18 07:21:34;;;;;;;9.52;8.93;;;;;;;;;;5039830;28;20029;-46
2022/04/18 07:23:59;;;;;;;9.25;8.65;;;;;;;;;;5041300;28;20036;-44
2022/04/18 07:26:25;;;;;;;16.27;15.38;;;;;;;;;;5041719;28;20035;-45
2022/04/18 07:28:50;;;;;;;9.15;8.55;;;;;;;;;;5040946;28;20029;-45
2022/04/18 07:31:16;;;;;;;14.38;13.57;;;;;;;;;;5040732;28;20033;-46
2022/04/18 07:33:41;;;;;;;21.75;20.55;;;;;;;;;;5036916;28;20035;-46
2022/04/18 07:36:07;;;;;;;29.42;27.90;;;;;;;;;;5037525;28;20044;-46
2022/04/18 07:38:51;;;;;;;43.67;41.47;;;;;;;;;;5037021;28;20779;-46
2022/04/18 07:41:18;;;;;;;49.85;47.35;;;;;;;;;;5037182;28;20120;-49
2022/04/18 07:43:44;;;;;;;54.00;51.28;;;;;;;;;;5036467;28;20033;-46
2022/04/18 07:46:10;;;;;;;51.95;49.35;;;;;;;;;;5035766;28;20040;-47
2022/04/18 07:48:35;;;;;;;53.22;50.53;;;;;;;;;;5038405;28;20052;-50
2022/04/18 07:53:45;;;;;;;59.38;56.38;;;;;;;;;;5030079;28;20121;-45
2022/04/18 07:56:11;;;;;;;60.83;57.78;;;;;;;;;;5045251;28;20497;-48
2022/04/18 07:58:36;;;;;;;61.58;58.45;;;;;;;;;;5047048;28;20025;-49
2022/04/18 08:01:02;;;;;;;44.45;42.15;;;;;;;;;;5045999;28;20036;-46
2022/04/18 08:03:27;;;;;;;43.15;40.95;;;;;;;;;;5047889;28;20214;-46
2022/04/18 08:05:56;;;;;;;23.05;21.75;;;;;;;;;;5048785;28;20466;-45
2022/04/18 08:08:22;;;;;;;32.47;30.73;;;;;;;;;;5047745;28;20119;-46
2022/04/18 08:10:48;;;;;;;17.42;16.45;;;;;;;;;;5047781;28;20174;-50
2022/04/18 08:13:14;;;;;;;11.10;10.40;;;;;;;;;;5048568;28;20032;-46
2022/04/18 08:15:39;;;;;;;17.73;16.73;;;;;;;;;;5050076;28;20025;-46
2022/04/18 08:18:05;;;;;;;10.32;9.73;;;;;;;;;;5049711;28;20474;-46
2022/04/18 08:20:31;;;;;;;8.18;7.57;;;;;;;;;;5049732;28;20426;-48
2022/04/18 08:22:56;;;;;;;7.00;6.50;;;;;;;;;;5048824;28;20033;-48
2022/04/18 08:25:22;;;;;;;7.03;6.53;;;;;;;;;;5049853;28;20427;-48
2022/04/18 08:27:47;;;;;;;7.32;6.82;;;;;;;;;;5049265;28;20039;-46
2022/04/18 08:30:13;;;;;;;6.15;5.75;;;;;;;;;;5065110;28;20029;-47
2022/04/18 08:32:39;;;;;;;6.60;6.10;;;;;;;;;;5047966;28;20041;-46
2022/04/18 08:35:06;;;;;;;6.95;6.45;;;;;;;;;;5050571;28;20044;-46
2022/04/18 08:37:33;;;;;;;6.60;6.10;;;;;;;;;;5048369;28;20033;-46
2022/04/18 08:39:58;;;;;;;6.78;6.28;;;;;;;;;;5049799;28;20028;-45
2022/04/18 08:42:25;;;;;;;7.18;6.68;;;;;;;;;;5048658;28;20032;-46
2022/04/18 08:44:51;;;;;;;8.70;8.10;;;;;;;;;;5049613;28;20028;-46
2022/04/18 08:52:52;;;;;;;9.32;8.70;;;;;;;;;;5049411;28;20115;-46
2022/04/18 08:55:17;;;;;;;11.55;10.85;;;;;;;;;;5048668;28;20179;-45
2022/04/18 08:57:43;;;;;;;12.32;11.45;;;;;;;;;;5049607;28;20029;-46
2022/04/18 09:00:09;;;;;;;14.27;13.38;;;;;;;;;;5048716;28;20137;-46
2022/04/18 09:02:35;;;;;;;14.75;13.88;;;;;;;;;;5048491;28;20039;-46
2022/04/18 09:05:01;;;;;;;16.80;15.80;;;;;;;;;;5047375;28;20071;-46
2022/04/18 09:07:27;;;;;;;12.23;11.52;;;;;;;;;;5048372;28;20133;-47
2022/04/18 09:09:56;;;;;;;16.20;15.30;;;;;;;;;;5049628;28;20049;-46
2022/04/18 09:12:23;;;;;;;16.60;15.60;;;;;;;;;;5048558;28;20044;-46
2022/04/18 09:14:48;;;;;;;14.18;13.38;;;;;;;;;;5047089;28;20032;-45
2022/04/18 09:17:29;;;;;;;13.88;12.85;;;;;;;;;;5027436;28;20463;-47
2022/04/18 09:20:04;;;;;;;;;;;;;;;;;;5048468;28;20116;-45
2022/04/18 09:22:30;;;;;;;15.35;14.35;;;;;;;;;;5048265;28;19913;-47
2022/04/18 09:24:56;;;;;;;12.98;12.20;;;;;;;;;;5047262;28;20017;-46
2022/04/18 09:27:29;;;;;;;12.95;12.15;;;;;;;;;;5040474;28;20032;-48
2022/04/18 09:30:09;;;;;;;10.18;9.57;;;;;;;;;;5049130;28;20071;-46
2022/04/18 09:32:35;;;;;;;14.55;13.75;;;;;;;;;;5047622;28;20037;-46
2022/04/18 09:35:02;;;;;;;9.95;9.35;;;;;;;;;;5048037;28;20041;-46
2022/04/18 09:37:29;;;;;;;10.82;10.13;;;;;;;;;;5047021;28;20082;-46
2022/04/18 09:39:55;;;;;;;9.10;8.50;;;;;;;;;;5046135;28;21019;-47
2022/04/18 09:42:28;;;;;;;9.60;9.00;;;;;;;;;;5046271;28;20036;-47
2022/04/18 09:44:54;;;;;;;9.65;9.05;;;;;;;;;;5043647;28;20043;-47
2022/04/18 09:47:22;;;;;;;8.88;8.27;;;;;;;;;;5047089;28;20029;-46
2022/04/18 09:49:48;;;;;;;8.90;8.30;;;;;;;;;;5047255;28;20035;-46
2022/04/18 09:52:16;;;;;;;8.60;8.00;;;;;;;;;;5046916;28;20454;-47
2022/04/18 09:54:58;;;;;;;7.40;6.90;;;;;;;;;;5047166;28;20367;-47
2022/04/18 09:57:26;;;;;;;11.25;10.55;;;;;;;;;;5046608;28;20045;-46
2022/04/18 09:59:53;;;;;;;11.43;10.65;;;;;;;;;;5046269;28;20063;-47
2022/04/18 10:02:20;;;;;;;19.50;18.42;;;;;;;;;;5044933;28;20016;-47
2022/04/18 10:04:46;;;;;;;15.70;14.80;;;;;;;;;;5045064;28;20047;-46
2022/04/18 10:07:13;;;;;;;13.18;12.38;;;;;;;;;;5046361;28;20033;-45
2022/04/18 10:09:42;;;;;;;23.70;22.40;;;;;;;;;;5046426;28;20043;-45
2022/04/18 10:12:09;;;;;;;27.42;25.95;;;;;;;;;;5044674;28;20540;-46
2022/04/18 10:14:36;;;;;;;27.30;25.83;;;;;;;;;;5047126;28;20055;-47
2022/04/18 10:17:02;;;;;;;14.80;13.93;;;;;;;;;;5046551;28;20063;-47
2022/04/18 10:19:55;;;;;;;22.70;21.48;;;;;;;;;;5046135;28;20049;-48
2022/04/18 10:22:35;;;;;;;19.70;18.60;;;;;;;;;;5046975;28;20051;-48
2022/04/18 10:25:37;;;;;;;23.88;22.58;;;;;;;;;;5046454;28;20097;-50
2022/04/18 10:28:08;;;;;;;19.77;18.67;;;;;;;;;;5046621;28;20514;-46
2022/04/18 10:30:53;;;;;;;;;;;;;;;;;;5045967;28;20044;-46
2022/04/18 10:33:19;;;;;;;26.23;24.83;;;;;;;;;;5045889;28;19924;-46
2022/04/18 10:35:53;;;;;;;20.02;18.92;;;;;;;;;;5046782;28;20045;-47
2022/04/18 10:38:25;;;;;;;24.83;23.50;;;;;;;;;;5110438;27;20142;-44
2022/04/18 10:40:51;;;;;;;23.95;22.65;;;;;;;;;;5093277;28;20107;-44
2022/04/18 10:43:16;;;;;;;30.13;28.52;;;;;;;;;;5093223;28;20165;-45
2022/04/18 10:45:41;;;;;;;21.98;20.77;;;;;;;;;;5094085;28;20039;-45
2022/04/18 10:48:11;;;;;;;23.63;22.33;;;;;;;;;;5095023;28;20028;-45
2022/04/18 10:50:47;;;;;;;33.42;31.73;;;;;;;;;;5100682;28;20124;-46
2022/04/18 10:53:14;;;;;;;26.63;25.23;;;;;;;;;;5092036;28;20028;-44
2022/04/18 10:55:51;;;;;;;25.40;24.05;;;;;;;;;;5108547;28;20043;-44
2022/04/18 10:58:21;;;;;;;26.80;25.40;;;;;;;;;;5093017;28;20035;-44
2022/04/18 11:00:49;;;;;;;26.10;24.70;;;;;;;;;;5090400;28;20028;-47
2022/04/18 11:03:34;;;;;;;26.17;24.77;;;;;;;;;;5092309;28;20127;-45
2022/04/18 11:06:00;;;;;;;28.58;26.98;;;;;;;;;;5091137;28;20038;-45
2022/04/18 11:08:29;;;;;;;28.00;26.50;;;;;;;;;;5090153;28;20028;-44
2022/04/18 11:11:03;;;;;;;29.55;28.05;;;;;;;;;;5091996;28;20065;-48
2022/04/18 11:13:32;;;;;;;27.52;26.02;;;;;;;;;;5091353;28;20038;-46
2022/04/18 11:16:22;;;;;;;33.20;31.33;;;;;;;;;;5093850;28;20036;-47
2022/04/18 11:19:07;;;;;;;25.67;24.23;;;;;;;;;;5092309;28;20060;-44
2022/04/18 11:21:58;;;;;;;26.90;25.50;;;;;;;;;;5092691;28;20036;-48
2022/04/18 11:24:43;;;;;;;25.60;24.25;;;;;;;;;;5092795;28;20115;-45
2022/04/18 11:27:14;;;;;;;22.80;21.55;;;;;;;;;;5090801;28;20028;-48
2022/04/18 11:29:45;;;;;;;21.65;20.48;;;;;;;;;;5089780;28;20060;-45
2022/04/18 11:32:16;;;;;;;19.70;18.60;;;;;;;;;;5090207;28;20598;-46
2022/04/18 11:34:47;;;;;;;20.92;19.75;;;;;;;;;;5093080;28;20035;-45
2022/04/18 11:37:21;;;;;;;20.17;19.08;;;;;;;;;;5088281;28;20702;-45
2022/04/18 11:39:49;;;;;;;17.50;16.50;;;;;;;;;;5090788;28;20020;-44
2022/04/18 11:42:41;;;;;;;13.90;13.10;;;;;;;;;;5091649;28;20425;-47
2022/04/18 11:45:10;;;;;;;16.58;15.68;;;;;;;;;;5086926;28;20036;-46
2022/04/18 11:47:40;;;;;;;15.93;15.02;;;;;;;;;;5084349;28;20128;-44
2022/04/18 11:50:07;;;;;;;;;;;;;;;;;;5071713;28;20028;-47
2022/04/18 11:52:35;;;;;;;19.25;18.15;;;;;;;;;;5076883;28;20003;-45
2022/04/18 11:55:09;;;;;;;18.05;17.05;;;;;;;;;;5072776;28;20051;-45
2022/04/18 11:57:37;;;;;;;24.88;23.45;;;;;;;;;;5090391;28;20029;-46
2022/04/18 12:00:06;;;;;;;19.90;18.80;;;;;;;;;;5072731;28;20036;-49
2022/04/18 12:08:08;;;;;;;12.18;11.38;;;;;;;;;;5061395;28;20353;-46
2022/04/18 12:10:36;;;;;;;10.60;10.00;;;;;;;;;;5080571;28;20039;-47
2022/04/18 12:13:06;;;;;;;11.50;10.80;;;;;;;;;;5079147;28;20539;-46
2022/04/18 12:15:34;;;;;;;12.60;11.88;;;;;;;;;;5072289;28;20112;-47
2022/04/18 12:18:11;;;;;;;14.13;13.23;;;;;;;;;;5090941;28;20477;-46
2022/04/18 12:20:49;;;;;;;14.27;13.45;;;;;;;;;;5075057;28;20054;-46
2022/04/18 12:23:23;;;;;;;18.38;17.38;;;;;;;;;;5078616;28;20040;-46
2022/04/18 12:25:57;;;;;;;15.27;14.38;;;;;;;;;;5073762;28;20025;-48
2022/04/18 12:28:25;;;;;;;16.83;15.90;;;;;;;;;;5079068;28;20126;-45
2022/04/18 12:30:51;;;;;;;15.60;14.70;;;;;;;;;;5078261;28;20051;-46
2022/04/18 12:33:19;;;;;;;20.38;19.27;;;;;;;;;;5078335;28;20063;-47
2022/04/18 12:35:48;;;;;;;20.30;19.20;;;;;;;;;;5078274;28;20032;-46
2022/04/18 12:38:15;;;;;;;19.80;18.70;;;;;;;;;;5078144;28;20036;-46
2022/04/18 12:40:54;;;;;;;22.27;21.08;;;;;;;;;;5077470;28;20074;-46
2022/04/18 12:43:20;;;;;;;21.75;20.55;;;;;;;;;;5078297;28;20068;-47
2022/04/18 12:45:55;;;;;;;28.80;27.30;;;;;;;;;;5075948;28;20760;-47
2022/04/18 12:48:21;;;;;;;29.95;28.38;;;;;;;;;;5074822;28;20081;-47
2022/04/18 12:50:47;;;;;;;34.28;32.50;;;;;;;;;;5071337;28;20039;-48
2022/04/18 12:53:12;;;;;;;40.72;38.65;;;;;;;;;;5074333;28;20172;-46
2022/04/18 12:55:38;;;;;;;20.92;19.80;;;;;;;;;;5057930;28;20036;-45
2022/04/18 12:58:14;;;;;;;26.33;24.92;;;;;;;;;;5073914;28;20024;-44
2022/04/18 13:00:39;;;;;;;39.33;37.33;;;;;;;;;;5071745;28;20048;-46
2022/04/18 13:03:07;;;;;;;36.70;34.78;;;;;;;;;;5074850;28;20028;-47
2022/04/18 13:05:40;;;;;;;45.17;42.88;;;;;;;;;;5074577;28;20102;-46
2022/04/18 13:08:07;;;;;;;82.72;78.63;;;;;;;;;;5073663;28;20460;-45
2022/04/18 13:10:35;;;;;;;49.70;47.17;;;;;;;;;;5072337;28;20044;-45
2022/04/18 13:13:11;;;;;;;38.42;36.45;;;;;;;;;;5075759;28;20128;-45
2022/04/18 13:15:39;;;;;;;88.13;83.78;;;;;;;;;;5074533;28;20699;-47
2022/04/18 13:18:08;;;;;;;92.55;87.97;;;;;;;;;;5075238;28;20111;-48
2022/04/18 13:20:35;;;;;;;99.25;94.35;;;;;;;;;;5075237;28;20509;-49
2022/04/18 13:23:01;;;;;;;99.93;95.00;;;;;;;;;;5075436;28;20085;-47
2022/04/18 13:25:27;;;;;;;110.47;105.05;;;;;;;;;;5071531;28;21490;-48
2022/04/18 13:27:55;;;;;;;96.28;91.50;;;;;;;;;;5066149;28;20028;-47
2022/04/18 13:30:24;;;;;;;96.97;92.20;;;;;;;;;;5070727;28;20051;-46
2022/04/18 13:32:51;;;;;;;98.72;93.80;;;;;;;;;;5070985;28;20491;-47
2022/04/18 13:35:19;;;;;;;102.82;97.80;;;;;;;;;;5074239;28;20032;-48
2022/04/18 13:37:46;;;;;;;103.13;98.05;;;;;;;;;;5072019;28;20024;-46
2022/04/18 13:40:13;;;;;;;99.07;94.20;;;;;;;;;;5070602;28;20070;-46
2022/04/18 13:42:38;;;;;;;83.00;78.88;;;;;;;;;;5072474;28;20039;-47
2022/04/18 13:45:04;;;;;;;98.00;93.18;;;;;;;;;;5074841;28;20036;-47
2022/04/18 13:47:29;;;;;;;103.28;98.20;;;;;;;;;;5071438;28;20040;-50
2022/04/18 13:49:55;;;;;;;90.72;86.22;;;;;;;;;;5074469;28;20196;-47
2022/04/18 13:52:20;;;;;;;78.25;74.35;;;;;;;;;;5075540;28;20464;-49
2022/04/18 13:54:45;;;;;;;89.50;84.95;;;;;;;;;;5072609;28;20042;-48
2022/04/18 13:57:11;;;;;;;110.05;104.68;;;;;;;;;;5068793;28;20028;-48
2022/04/18 13:59:37;;;;;;;82.82;78.68;;;;;;;;;;5073189;28;20036;-46
2022/04/18 14:02:03;;;;;;;80.18;76.20;;;;;;;;;;5073210;28;20035;-47
2022/04/18 14:04:28;;;;;;;80.22;76.25;;;;;;;;;;5073033;28;20044;-52
2022/04/18 14:06:55;;;;;;;101.88;96.85;;;;;;;;;;5080637;28;20579;-56
2022/04/18 14:09:21;;;;;;;92.88;88.18;;;;;;;;;;5073319;28;20032;-49
2022/04/18 14:11:46;;;;;;;77.72;73.88;;;;;;;;;;5075625;28;20027;-48
2022/04/18 14:20:20;;;;;;;102.70;97.65;;;;;;;;;;5071797;28;20034;-46
2022/04/18 14:22:25;;;;;;;81.47;77.45;;;;;;;;;;5071501;28;20036;-45
2022/04/18 14:24:50;;;;;;;94.30;89.68;;;;;;;;;;5071763;28;20473;-47
2022/04/18 14:27:16;;;;;;;67.10;63.78;;;;;;;;;;5072765;28;20041;-46
2022/04/18 14:29:41;;;;;;;73.10;69.45;;;;;;;;;;5070212;28;20042;-47
2022/04/18 14:32:07;;;;;;;68.35;64.85;;;;;;;;;;5069190;28;20147;-45
2022/04/18 14:34:32;;;;;;;76.88;73.10;;;;;;;;;;5068549;28;20578;-46
2022/04/18 14:36:58;;;;;;;70.82;67.30;;;;;;;;;;5070838;28;20024;-45
2022/04/18 14:39:24;;;;;;;98.95;94.07;;;;;;;;;;5078447;28;20040;-46
2022/04/18 14:41:49;;;;;;;85.60;81.38;;;;;;;;;;5076560;28;20107;-47
2022/04/18 14:44:15;;;;;;;117.20;111.38;;;;;;;;;;5073078;28;20036;-46
2022/04/18 14:46:40;;;;;;;98.28;93.45;;;;;;;;;;5073550;28;20503;-45
2022/04/18 14:49:05;;;;;;;93.40;88.72;;;;;;;;;;5071105;28;20086;-46
2022/04/18 14:51:32;;;;;;;101.43;96.45;;;;;;;;;;5069685;28;20069;-45
2022/04/18 14:53:57;;;;;;;89.28;84.88;;;;;;;;;;5074624;28;20033;-45
2022/04/18 14:56:23;;;;;;;76.97;73.13;;;;;;;;;;5072940;28;20041;-47
2022/04/18 14:58:48;;;;;;;56.25;53.45;;;;;;;;;;5069844;28;20044;-45
2022/04/18 15:01:15;;;;;;;93.15;88.57;;;;;;;;;;5075316;28;20133;-49